Kershaw, SC (29067)

6:47 AM EDT on April 28, 2017 (GMT -0400)
Taxahaw | | Change Station
Active Advisory: Flood Warning

Elev 528 ft 34.70 °N, 80.54 °W | Updated 1 second ago

Partly Cloudy
Partly Cloudy
62.8 °F
Feels Like 62.8 °F
N
0.0
Wind Variable Wind from South
Gusts 0.0 mph

Today
High -- | Low -- °F
--% Chance of Precip.
Yesterday
High -- | Low -- °F
Precip. -- in
Pressure 30.00 in
Visibility 7.0 miles
Clouds Few 4100 ft
Few 4800 ft
Few 8500 ft
Dew Point 61 °F
Humidity 95%
Rainfall 0.00 in
Snow Depth Not available.
6:35 AM 8:04 PM
Waxing Crescent, 6% visible
METAR KCDN 281035Z AUTO 00000KT 7SM FEW041 FEW048 FEW085 20/18 A3000 RMK AO2
Pressure 30.00 in
Visibility 7.0 miles
Clouds Few 4100 ft
Few 4800 ft
Few 8500 ft
Dew Point 61 °F
Humidity 95%
Rainfall 0.00 in
Snow Depth Not available.
6:35 AM 8:04 PM
Waxing Crescent, 6% visible
METAR KCDN 281035Z AUTO 00000KT 7SM FEW041 FEW048 FEW085 20/18 A3000 RMK AO2

Get Your Daily Forecast Email!

Thanks for signing up!

Be on the lookout for a verification email in your inbox.

You'll start receiving severe weather alerts in your inbox..

×

10-Day Weather Forecast

Almanac

Astronomy

Apr. 28, 2017 Rise Set
Actual Time
Civil Twilight
Nautical Twilight
Astronomical Twilight
Moon
Length of Visible Light
Length of Day
Tomorrow will be .
, % of the Moon is Illuminated

Today's Extremes

State Highs State Lows

Community

WunderPhotos

WunderBlog® & News

Nearby

Air Quality

  Air Quality AQ Index Pollutant
Not available.

Snow Depth

Station Depth Elevation

Earthquake Activity

City Distance Mag. Time & Date
Minimum magnitude displayed is 2.5.

Coastal Water Temperatures

Place Temperature

Stations

Nearby Weather Stations

Station Location Temp. Windchill Dew Point Humidity Wind Precip. Elev Updated Type
                   

Watches & Warnings

Flood Warning
Issued: 4:08 AM EDT Apr. 28, 2017 – National Weather Service

The Flood Warning continues for
the Wateree river at Lake Wateree.
* Until Monday morning... or until the warning is cancelled.
* At 3 am Friday the stage was 100.5 feet.
* Flood stage is 100.0 feet.
* Minor flooding is occurring and minor flooding is forecast.
* Forecast... the river will continue to fall... going below flood
stage by Sunday morning.
* At 100.5 feet... several yards and docks in low lying areas around
Lake Wateree begin to flood.


Lat... Lon 3450 8085 3432 8063 3428 8075 3447 8098